^^
Meteo Knjazevac Station Historical Data
Daily Summary for March 17, 2021 Units:  English    Metric   Both
Daily Weekly Monthly Yearly Custom
  High: Low: Average:
Temperature: 40.6 °F 37.4 °F 38.3 °F
Dew Point: 39.5 °F 36.5 °F 37.7 °F
Humidity: 99% 94% 98%
Wind Speed: 9mph 0mph 2mph
Wind Gust: 14mph - -
Wind- - SSW
Pressure: 30.35 in 30.28 in -
Precipitation: 0.08 in    
Historical Graphs
 
 
Tabular Data for March 17, 2021
Time Temperature Dew Point Pressure Wind Wind Speed Wind Gust Humidity Rainfall Rate (Hourly) solar Conditions
00:00 37.8 °F 36.5 °F 30.35 in SW 1 mph 4 mph 95% 0.00 in 0 W/m2
00:10 37.8 °F 36.5 °F 30.34 in SW 1 mph 3 mph 95% 0.00 in 0 W/m2
00:20 37.9 °F 36.5 °F 30.34 in SW 2 mph 3 mph 95% 0.00 in 0 W/m2
00:30 37.9 °F 36.6 °F 30.34 in WSW 1 mph 3 mph 95% 0.00 in 0 W/m2
00:40 37.9 °F 36.6 °F 30.34 in WSW 1 mph 3 mph 95% 0.00 in 0 W/m2
00:50 38.1 °F 36.8 °F 30.33 in North 1 mph 3 mph 95% 0.00 in 0 W/m2
01:00 38.1 °F 36.5 °F 30.34 in SSE 1 mph 4 mph 94% 0.00 in 0 W/m2
01:10 38.3 °F 36.7 °F 30.33 in NE 1 mph 5 mph 94% 0.00 in 0 W/m2
01:20 38.3 °F 37 °F 30.33 in West 2 mph 3 mph 95% 0.00 in 0 W/m2
01:30 38.3 °F 37 °F 30.33 in South 1 mph 3 mph 95% 0.00 in 0 W/m2
01:40 38.5 °F 37.2 °F 30.33 in West 1 mph 3 mph 95% 0.00 in 0 W/m2
01:50 38.5 °F 37.2 °F 30.33 in WSW 1 mph 5 mph 95% 0.00 in 0 W/m2
02:00 38.5 °F 37.2 °F 30.34 in West 1 mph 4 mph 95% 0.00 in 0 W/m2
02:10 38.5 °F 37.4 °F 30.34 in Calm   2 mph 96% 0.00 in 0 W/m2
02:20 38.5 °F 37.4 °F 30.33 in West 1 mph 3 mph 96% 0.01 in 0 W/m2
02:30 38.5 °F 38 °F 30.33 in SW 3 mph 6 mph 98% 0.01 in 0 W/m2
02:40 38.5 °F 38 °F 30.33 in WSW 3 mph 8 mph 98% 0.00 in 0 W/m2
02:50 38.5 °F 38 °F 30.33 in WSW 1 mph 5 mph 98% 0.00 in 0 W/m2
03:00 38.5 °F 38.2 °F 30.33 in West 1 mph 3 mph 99% 0.00 in 0 W/m2
03:10 38.3 °F 38 °F 30.33 in NNW 1 mph 2 mph 99% 0.00 in 0 W/m2
03:20 38.1 °F 37.9 °F 30.32 in SSE 2 mph 4 mph 99% 0.00 in 0 W/m2
03:30 37.9 °F 37.7 °F 30.32 in Calm   3 mph 99% 0.00 in 0 W/m2
03:40 37.9 °F 37.7 °F 30.32 in Calm   2 mph 99% 0.00 in 0 W/m2
03:50 37.8 °F 37.6 °F 30.32 in Calm   2 mph 99% 0.00 in 0 W/m2
04:00 37.8 °F 37.5 °F 30.31 in Calm   2 mph 99% 0.00 in 0 W/m2
04:10 37.7 °F 37.4 °F 30.31 in SW 1 mph 4 mph 99% 0.00 in 0 W/m2
04:20 37.6 °F 37.3 °F 30.31 in ENE 2 mph 4 mph 99% 0.00 in 0 W/m2
04:30 37.6 °F 37.3 °F 30.31 in ENE 1 mph 4 mph 99% 0.00 in 0 W/m2
04:40 37.6 °F 37.3 °F 30.31 in SSW 1 mph 4 mph 99% 0.00 in 0 W/m2
04:50 37.4 °F 37.1 °F 30.31 in South 1 mph 2 mph 99% 0.00 in 0 W/m2
05:00 37.4 °F 37.1 °F 30.31 in NE 1 mph 3 mph 99% 0.00 in 0 W/m2
05:10 37.4 °F 37.1 °F 30.31 in NE 1 mph 3 mph 99% 0.00 in 0 W/m2
05:20 37.4 °F 37.1 °F 30.31 in Calm   4 mph 99% 0.00 in 0 W/m2
05:30 37.4 °F 37.1 °F 30.30 in SE 2 mph 4 mph 99% 0.00 in 0 W/m2
05:40 37.6 °F 37.3 °F 30.31 in NE 1 mph 4 mph 99% 0.00 in 0 W/m2
05:50 37.4 °F 37.1 °F 30.30 in North 1 mph 5 mph 99% 0.00 in 0 W/m2
06:00 37.6 °F 37.3 °F 30.31 in Calm   4 mph 99% 0.00 in 0 W/m2
06:10 37.8 °F 37.5 °F 30.30 in SSE 1 mph 3 mph 99% 0.00 in 0 W/m2
06:20 37.8 °F 37.5 °F 30.31 in NE 1 mph 3 mph 99% 0.00 in 0 W/m2
06:30 37.8 °F 37.5 °F 30.31 in NNE 1 mph 4 mph 99% 0.04 in 0 W/m2
06:40 37.9 °F 37.7 °F 30.31 in WSW 3 mph 6 mph 99% 0.00 in 0 W/m2
06:50 38.1 °F 37.9 °F 30.31 in SW 1 mph 5 mph 99% 0.00 in 0 W/m2
07:00 38.1 °F 37.9 °F 30.31 in WSW 3 mph 9 mph 99% 0.00 in 0 W/m2
07:10 38.3 °F 38 °F 30.31 in SW 3 mph 5 mph 99% 0.00 in 2 W/m2
07:20 38.7 °F 38.4 °F 30.31 in West 5 mph 14 mph 99% 0.00 in 6 W/m2
07:30 39 °F 38.8 °F 30.30 in WSW 7 mph 14 mph 99% 0.00 in 12 W/m2
07:40 39.4 °F 39.1 °F 30.30 in West 6 mph 13 mph 99% 0.00 in 17 W/m2
07:50 39.6 °F 39 °F 30.30 in WSW 8 mph 14 mph 98% 0.00 in 23 W/m2
08:00 39.7 °F 39.2 °F 30.30 in WSW 5 mph 13 mph 98% 0.00 in 30 W/m2
08:10 40.1 °F 39.1 °F 30.30 in WSW 2 mph 7 mph 96% 0.00 in 92 W/m2
08:20 40.3 °F 39.2 °F 30.30 in SW 2 mph 7 mph 96% 0.00 in 51 W/m2
08:30 40.5 °F 39.4 °F 30.29 in SW 6 mph 11 mph 96% 0.00 in 24 W/m2
08:40 40.6 °F 39.5 °F 30.29 in WSW 6 mph 12 mph 96% 0.00 in 36 W/m2
08:50 40.6 °F 39.3 °F 30.28 in WSW 9 mph 13 mph 95% 0.00 in 47 W/m2
Knjazevac, Serbia
Compliments of Weather Underground - 2 mb